sensor_id;sensor_type;location;lat;lon;timestamp;P1;durP1;ratioP1;P2;durP2;ratioP2
39874;SDS011;25547;52.530;13.194;2023-05-07T00:01:37;15.40;;;10.05;;
39874;SDS011;25547;52.530;13.194;2023-05-07T00:04:03;15.32;;;9.65;;
39874;SDS011;25547;52.530;13.194;2023-05-07T00:06:33;13.20;;;9.77;;
39874;SDS011;25547;52.530;13.194;2023-05-07T00:08:59;12.30;;;9.23;;
39874;SDS011;25547;52.530;13.194;2023-05-07T00:11:26;10.77;;;8.10;;
39874;SDS011;25547;52.530;13.194;2023-05-07T00:13:52;14.05;;;8.82;;
39874;SDS011;25547;52.530;13.194;2023-05-07T00:16:18;10.43;;;6.38;;
39874;SDS011;25547;52.530;13.194;2023-05-07T00:18:44;13.05;;;7.80;;
39874;SDS011;25547;52.530;13.194;2023-05-07T00:21:10;10.32;;;7.10;;
39874;SDS011;25547;52.530;13.194;2023-05-07T00:23:38;9.88;;;6.28;;
39874;SDS011;25547;52.530;13.194;2023-05-07T00:26:04;11.25;;;6.90;;
39874;SDS011;25547;52.530;13.194;2023-05-07T00:28:29;9.13;;;6.18;;
39874;SDS011;25547;52.530;13.194;2023-05-07T00:30:55;10.60;;;5.93;;
39874;SDS011;25547;52.530;13.194;2023-05-07T00:33:25;9.88;;;6.65;;
39874;SDS011;25547;52.530;13.194;2023-05-07T00:35:52;9.55;;;5.38;;
39874;SDS011;25547;52.530;13.194;2023-05-07T00:38:19;9.00;;;4.78;;
39874;SDS011;25547;52.530;13.194;2023-05-07T00:40:45;10.70;;;5.65;;
39874;SDS011;25547;52.530;13.194;2023-05-07T00:43:10;10.73;;;5.30;;
39874;SDS011;25547;52.530;13.194;2023-05-07T00:45:37;12.82;;;6.15;;
39874;SDS011;25547;52.530;13.194;2023-05-07T00:48:03;7.45;;;5.63;;
39874;SDS011;25547;52.530;13.194;2023-05-07T00:50:30;9.48;;;5.93;;
39874;SDS011;25547;52.530;13.194;2023-05-07T00:53:01;7.45;;;5.22;;
39874;SDS011;25547;52.530;13.194;2023-05-07T00:55:27;8.57;;;5.20;;
39874;SDS011;25547;52.530;13.194;2023-05-07T00:57:54;7.60;;;5.47;;
39874;SDS011;25547;52.530;13.194;2023-05-07T01:00:20;8.38;;;5.47;;
39874;SDS011;25547;52.530;13.194;2023-05-07T01:02:49;7.88;;;4.68;;
39874;SDS011;25547;52.530;13.194;2023-05-07T01:05:15;10.15;;;4.72;;
39874;SDS011;25547;52.530;13.194;2023-05-07T01:07:43;8.48;;;5.15;;
39874;SDS011;25547;52.530;13.194;2023-05-07T01:10:12;7.80;;;3.83;;
39874;SDS011;25547;52.530;13.194;2023-05-07T01:12:38;6.97;;;4.22;;
39874;SDS011;25547;52.530;13.194;2023-05-07T01:15:07;7.07;;;4.03;;
39874;SDS011;25547;52.530;13.194;2023-05-07T01:20:05;7.80;;;4.07;;
39874;SDS011;25547;52.530;13.194;2023-05-07T01:22:32;7.35;;;3.90;;
39874;SDS011;25547;52.530;13.194;2023-05-07T01:25:07;7.45;;;3.67;;
39874;SDS011;25547;52.530;13.194;2023-05-07T01:27:33;5.88;;;4.00;;
39874;SDS011;25547;52.530;13.194;2023-05-07T01:30:00;11.55;;;5.13;;
39874;SDS011;25547;52.530;13.194;2023-05-07T01:33:10;10.02;;;5.38;;
39874;SDS011;25547;52.530;13.194;2023-05-07T01:35:22;6.13;;;4.40;;
39874;SDS011;25547;52.530;13.194;2023-05-07T01:37:52;9.85;;;4.95;;
39874;SDS011;25547;52.530;13.194;2023-05-07T01:40:21;8.13;;;5.22;;
39874;SDS011;25547;52.530;13.194;2023-05-07T01:42:48;9.35;;;4.72;;
39874;SDS011;25547;52.530;13.194;2023-05-07T01:45:17;7.85;;;4.18;;
39874;SDS011;25547;52.530;13.194;2023-05-07T01:47:43;5.75;;;3.63;;
39874;SDS011;25547;52.530;13.194;2023-05-07T01:50:09;6.32;;;3.80;;
39874;SDS011;25547;52.530;13.194;2023-05-07T01:52:36;5.03;;;3.10;;
39874;SDS011;25547;52.530;13.194;2023-05-07T01:55:05;6.85;;;4.25;;
39874;SDS011;25547;52.530;13.194;2023-05-07T01:57:31;6.60;;;3.53;;
39874;SDS011;25547;52.530;13.194;2023-05-07T01:59:57;6.18;;;3.33;;
39874;SDS011;25547;52.530;13.194;2023-05-07T02:02:23;12.27;;;5.07;;
39874;SDS011;25547;52.530;13.194;2023-05-07T02:04:51;7.25;;;3.60;;
39874;SDS011;25547;52.530;13.194;2023-05-07T02:07:16;4.63;;;3.35;;
39874;SDS011;25547;52.530;13.194;2023-05-07T02:09:42;5.25;;;4.05;;
39874;SDS011;25547;52.530;13.194;2023-05-07T02:12:07;5.88;;;3.90;;
39874;SDS011;25547;52.530;13.194;2023-05-07T02:14:35;10.73;;;5.18;;
39874;SDS011;25547;52.530;13.194;2023-05-07T02:17:03;6.03;;;4.18;;
39874;SDS011;25547;52.530;13.194;2023-05-07T02:19:33;8.50;;;4.10;;
39874;SDS011;25547;52.530;13.194;2023-05-07T02:22:00;5.43;;;3.97;;
39874;SDS011;25547;52.530;13.194;2023-05-07T02:24:25;6.78;;;3.92;;
39874;SDS011;25547;52.530;13.194;2023-05-07T02:26:56;6.82;;;3.58;;
39874;SDS011;25547;52.530;13.194;2023-05-07T02:29:24;6.07;;;3.83;;
39874;SDS011;25547;52.530;13.194;2023-05-07T02:31:51;7.83;;;3.93;;
39874;SDS011;25547;52.530;13.194;2023-05-07T02:34:18;14.52;;;4.43;;
39874;SDS011;25547;52.530;13.194;2023-05-07T02:36:46;6.75;;;4.03;;
39874;SDS011;25547;52.530;13.194;2023-05-07T02:39:12;4.88;;;3.72;;
39874;SDS011;25547;52.530;13.194;2023-05-07T02:41:41;9.05;;;5.07;;
39874;SDS011;25547;52.530;13.194;2023-05-07T02:44:07;8.25;;;5.93;;
39874;SDS011;25547;52.530;13.194;2023-05-07T02:46:35;8.93;;;5.57;;
39874;SDS011;25547;52.530;13.194;2023-05-07T02:49:01;11.38;;;6.70;;
39874;SDS011;25547;52.530;13.194;2023-05-07T02:51:26;10.85;;;5.88;;
39874;SDS011;25547;52.530;13.194;2023-05-07T02:53:52;9.02;;;5.97;;
39874;SDS011;25547;52.530;13.194;2023-05-07T02:56:21;7.57;;;5.63;;
39874;SDS011;25547;52.530;13.194;2023-05-07T02:58:46;13.55;;;6.20;;
39874;SDS011;25547;52.530;13.194;2023-05-07T03:01:12;7.22;;;5.43;;
39874;SDS011;25547;52.530;13.194;2023-05-07T03:03:39;9.10;;;5.53;;
39874;SDS011;25547;52.530;13.194;2023-05-07T03:06:06;10.70;;;5.65;;
39874;SDS011;25547;52.530;13.194;2023-05-07T03:08:32;9.77;;;5.68;;
39874;SDS011;25547;52.530;13.194;2023-05-07T03:11:02;12.85;;;5.60;;
39874;SDS011;25547;52.530;13.194;2023-05-07T03:13:33;8.98;;;6.40;;
39874;SDS011;25547;52.530;13.194;2023-05-07T03:16:02;9.85;;;6.40;;
39874;SDS011;25547;52.530;13.194;2023-05-07T03:18:30;8.95;;;6.50;;
39874;SDS011;25547;52.530;13.194;2023-05-07T03:21:01;8.20;;;5.65;;
39874;SDS011;25547;52.530;13.194;2023-05-07T03:23:28;9.67;;;5.50;;
39874;SDS011;25547;52.530;13.194;2023-05-07T03:25:54;10.73;;;5.47;;
39874;SDS011;25547;52.530;13.194;2023-05-07T03:28:20;7.93;;;5.03;;
39874;SDS011;25547;52.530;13.194;2023-05-07T03:30:45;5.20;;;3.85;;
39874;SDS011;25547;52.530;13.194;2023-05-07T03:33:11;7.05;;;4.22;;
39874;SDS011;25547;52.530;13.194;2023-05-07T03:35:37;17.88;;;9.85;;
39874;SDS011;25547;52.530;13.194;2023-05-07T03:38:05;10.40;;;6.80;;
39874;SDS011;25547;52.530;13.194;2023-05-07T03:40:35;7.50;;;4.55;;
39874;SDS011;25547;52.530;13.194;2023-05-07T03:43:01;6.47;;;4.65;;
39874;SDS011;25547;52.530;13.194;2023-05-07T03:45:26;7.30;;;4.55;;
39874;SDS011;25547;52.530;13.194;2023-05-07T03:47:52;6.40;;;3.25;;
39874;SDS011;25547;52.530;13.194;2023-05-07T03:50:20;6.47;;;4.07;;
39874;SDS011;25547;52.530;13.194;2023-05-07T03:52:45;8.00;;;4.10;;
39874;SDS011;25547;52.530;13.194;2023-05-07T03:55:13;9.77;;;5.43;;
39874;SDS011;25547;52.530;13.194;2023-05-07T03:57:44;6.80;;;3.90;;
39874;SDS011;25547;52.530;13.194;2023-05-07T04:00:09;13.63;;;4.05;;
39874;SDS011;25547;52.530;13.194;2023-05-07T04:02:36;6.18;;;3.92;;
39874;SDS011;25547;52.530;13.194;2023-05-07T04:05:04;8.02;;;3.47;;
39874;SDS011;25547;52.530;13.194;2023-05-07T04:07:30;7.07;;;4.35;;
39874;SDS011;25547;52.530;13.194;2023-05-07T04:09:58;7.32;;;4.35;;
39874;SDS011;25547;52.530;13.194;2023-05-07T04:12:23;6.55;;;3.72;;
39874;SDS011;25547;52.530;13.194;2023-05-07T04:14:49;5.63;;;3.38;;
39874;SDS011;25547;52.530;13.194;2023-05-07T04:17:17;6.38;;;4.35;;
39874;SDS011;25547;52.530;13.194;2023-05-07T04:19:43;5.50;;;4.05;;
39874;SDS011;25547;52.530;13.194;2023-05-07T04:22:11;6.38;;;3.67;;
39874;SDS011;25547;52.530;13.194;2023-05-07T04:24:39;6.07;;;3.90;;
39874;SDS011;25547;52.530;13.194;2023-05-07T04:27:05;6.95;;;4.38;;
39874;SDS011;25547;52.530;13.194;2023-05-07T04:29:32;8.93;;;4.72;;
39874;SDS011;25547;52.530;13.194;2023-05-07T04:32:01;8.25;;;3.42;;
39874;SDS011;25547;52.530;13.194;2023-05-07T04:34:26;5.97;;;4.03;;
39874;SDS011;25547;52.530;13.194;2023-05-07T04:36:52;6.95;;;4.32;;
39874;SDS011;25547;52.530;13.194;2023-05-07T04:39:18;7.65;;;4.60;;
39874;SDS011;25547;52.530;13.194;2023-05-07T04:41:43;8.02;;;4.35;;
39874;SDS011;25547;52.530;13.194;2023-05-07T04:44:09;7.25;;;3.45;;
39874;SDS011;25547;52.530;13.194;2023-05-07T04:46:37;24.90;;;13.35;;
39874;SDS011;25547;52.530;13.194;2023-05-07T04:49:02;7.40;;;4.20;;
39874;SDS011;25547;52.530;13.194;2023-05-07T04:51:28;6.70;;;3.67;;
39874;SDS011;25547;52.530;13.194;2023-05-07T04:53:54;7.65;;;3.88;;
39874;SDS011;25547;52.530;13.194;2023-05-07T04:56:19;5.35;;;3.22;;
39874;SDS011;25547;52.530;13.194;2023-05-07T04:58:45;6.97;;;4.28;;
39874;SDS011;25547;52.530;13.194;2023-05-07T05:01:11;5.75;;;3.63;;
39874;SDS011;25547;52.530;13.194;2023-05-07T05:03:36;5.10;;;2.97;;
39874;SDS011;25547;52.530;13.194;2023-05-07T05:06:02;5.82;;;3.40;;
39874;SDS011;25547;52.530;13.194;2023-05-07T05:08:30;6.80;;;3.25;;
39874;SDS011;25547;52.530;13.194;2023-05-07T05:11:00;5.47;;;2.72;;
39874;SDS011;25547;52.530;13.194;2023-05-07T05:13:28;4.20;;;2.43;;
39874;SDS011;25547;52.530;13.194;2023-05-07T05:15:55;3.80;;;1.98;;
39874;SDS011;25547;52.530;13.194;2023-05-07T05:18:20;6.65;;;2.83;;
39874;SDS011;25547;52.530;13.194;2023-05-07T05:20:51;4.32;;;2.33;;
39874;SDS011;25547;52.530;13.194;2023-05-07T05:23:17;3.20;;;1.80;;
39874;SDS011;25547;52.530;13.194;2023-05-07T05:25:42;3.55;;;2.03;;
39874;SDS011;25547;52.530;13.194;2023-05-07T05:28:08;3.78;;;1.42;;
39874;SDS011;25547;52.530;13.194;2023-05-07T05:30:33;3.45;;;2.00;;
39874;SDS011;25547;52.530;13.194;2023-05-07T05:33:01;3.67;;;2.08;;
39874;SDS011;25547;52.530;13.194;2023-05-07T05:35:29;4.22;;;1.48;;
39874;SDS011;25547;52.530;13.194;2023-05-07T05:37:55;2.40;;;1.48;;
39874;SDS011;25547;52.530;13.194;2023-05-07T05:40:21;4.30;;;1.58;;
39874;SDS011;25547;52.530;13.194;2023-05-07T05:42:47;8.77;;;2.80;;
39874;SDS011;25547;52.530;13.194;2023-05-07T05:45:17;5.18;;;1.77;;
39874;SDS011;25547;52.530;13.194;2023-05-07T05:47:43;4.65;;;2.30;;
39874;SDS011;25547;52.530;13.194;2023-05-07T05:50:08;3.03;;;1.63;;
39874;SDS011;25547;52.530;13.194;2023-05-07T05:52:37;3.80;;;2.03;;
39874;SDS011;25547;52.530;13.194;2023-05-07T05:55:03;5.38;;;1.48;;
39874;SDS011;25547;52.530;13.194;2023-05-07T05:57:29;2.72;;;1.50;;
39874;SDS011;25547;52.530;13.194;2023-05-07T05:59:54;3.05;;;1.48;;
39874;SDS011;25547;52.530;13.194;2023-05-07T06:02:20;5.30;;;2.10;;
39874;SDS011;25547;52.530;13.194;2023-05-07T06:04:48;3.92;;;1.45;;
39874;SDS011;25547;52.530;13.194;2023-05-07T06:07:16;4.85;;;2.55;;
39874;SDS011;25547;52.530;13.194;2023-05-07T06:09:44;12.50;;;6.18;;
39874;SDS011;25547;52.530;13.194;2023-05-07T06:12:12;6.57;;;3.42;;
39874;SDS011;25547;52.530;13.194;2023-05-07T06:14:40;2.65;;;1.52;;
39874;SDS011;25547;52.530;13.194;2023-05-07T06:17:08;2.90;;;1.50;;
39874;SDS011;25547;52.530;13.194;2023-05-07T06:19:36;2.55;;;1.00;;
39874;SDS011;25547;52.530;13.194;2023-05-07T06:22:01;2.60;;;1.25;;
39874;SDS011;25547;52.530;13.194;2023-05-07T06:24:27;3.65;;;1.35;;
39874;SDS011;25547;52.530;13.194;2023-05-07T06:26:53;3.05;;;1.30;;
39874;SDS011;25547;52.530;13.194;2023-05-07T06:29:21;3.08;;;1.42;;
39874;SDS011;25547;52.530;13.194;2023-05-07T06:31:47;3.50;;;1.55;;
39874;SDS011;25547;52.530;13.194;2023-05-07T06:34:13;2.17;;;1.05;;
39874;SDS011;25547;52.530;13.194;2023-05-07T06:36:41;2.90;;;1.42;;
39874;SDS011;25547;52.530;13.194;2023-05-07T06:39:06;4.13;;;1.55;;
39874;SDS011;25547;52.530;13.194;2023-05-07T06:41:32;3.55;;;1.45;;
39874;SDS011;25547;52.530;13.194;2023-05-07T06:43:58;3.17;;;1.90;;
39874;SDS011;25547;52.530;13.194;2023-05-07T06:46:23;5.50;;;1.85;;
39874;SDS011;25547;52.530;13.194;2023-05-07T06:48:49;4.85;;;1.90;;
39874;SDS011;25547;52.530;13.194;2023-05-07T06:51:17;4.10;;;1.83;;
39874;SDS011;25547;52.530;13.194;2023-05-07T06:53:43;4.28;;;1.77;;
39874;SDS011;25547;52.530;13.194;2023-05-07T06:56:11;5.38;;;2.08;;
39874;SDS011;25547;52.530;13.194;2023-05-07T06:58:37;3.35;;;1.70;;
39874;SDS011;25547;52.530;13.194;2023-05-07T07:01:02;4.45;;;2.58;;
39874;SDS011;25547;52.530;13.194;2023-05-07T07:03:30;3.40;;;2.45;;
39874;SDS011;25547;52.530;13.194;2023-05-07T07:05:56;2.72;;;1.70;;
39874;SDS011;25547;52.530;13.194;2023-05-07T07:08:22;2.78;;;1.50;;
39874;SDS011;25547;52.530;13.194;2023-05-07T07:10:47;3.22;;;1.83;;
39874;SDS011;25547;52.530;13.194;2023-05-07T07:13:13;3.38;;;1.23;;
39874;SDS011;25547;52.530;13.194;2023-05-07T07:15:41;2.92;;;2.10;;
39874;SDS011;25547;52.530;13.194;2023-05-07T07:18:08;2.70;;;1.25;;
39874;SDS011;25547;52.530;13.194;2023-05-07T07:20:33;3.00;;;1.05;;
39874;SDS011;25547;52.530;13.194;2023-05-07T07:22:59;2.67;;;1.17;;
39874;SDS011;25547;52.530;13.194;2023-05-07T07:25:27;4.22;;;1.58;;
39874;SDS011;25547;52.530;13.194;2023-05-07T07:27:53;3.85;;;1.50;;
39874;SDS011;25547;52.530;13.194;2023-05-07T07:30:21;6.78;;;1.48;;
39874;SDS011;25547;52.530;13.194;2023-05-07T07:32:46;3.28;;;1.15;;
39874;SDS011;25547;52.530;13.194;2023-05-07T07:35:12;2.05;;;0.60;;
39874;SDS011;25547;52.530;13.194;2023-05-07T07:37:37;2.20;;;0.40;;
39874;SDS011;25547;52.530;13.194;2023-05-07T07:40:03;4.28;;;0.70;;
39874;SDS011;25547;52.530;13.194;2023-05-07T07:42:30;1.45;;;0.52;;
39874;SDS011;25547;52.530;13.194;2023-05-07T07:44:58;1.70;;;0.40;;
39874;SDS011;25547;52.530;13.194;2023-05-07T07:47:23;3.10;;;0.57;;
39874;SDS011;25547;52.530;13.194;2023-05-07T07:49:49;2.08;;;0.50;;
39874;SDS011;25547;52.530;13.194;2023-05-07T07:52:17;2.10;;;0.38;;
39874;SDS011;25547;52.530;13.194;2023-05-07T07:57:11;2.15;;;0.35;;
39874;SDS011;25547;52.530;13.194;2023-05-07T07:59:36;3.95;;;0.47;;
39874;SDS011;25547;52.530;13.194;2023-05-07T08:02:05;2.67;;;0.63;;
39874;SDS011;25547;52.530;13.194;2023-05-07T08:04:33;1.55;;;0.50;;
39874;SDS011;25547;52.530;13.194;2023-05-07T08:07:01;1.20;;;0.20;;
39874;SDS011;25547;52.530;13.194;2023-05-07T08:12:00;1.20;;;0.20;;
39874;SDS011;25547;52.530;13.194;2023-05-07T08:14:26;1.98;;;0.30;;
39874;SDS011;25547;52.530;13.194;2023-05-07T08:16:53;1.23;;;0.30;;
39874;SDS011;25547;52.530;13.194;2023-05-07T08:19:22;1.15;;;0.20;;
39874;SDS011;25547;52.530;13.194;2023-05-07T08:21:48;2.05;;;0.40;;
39874;SDS011;25547;52.530;13.194;2023-05-07T08:24:14;1.10;;;0.20;;
39874;SDS011;25547;52.530;13.194;2023-05-07T08:26:40;2.92;;;0.20;;
39874;SDS011;25547;52.530;13.194;2023-05-07T08:29:06;2.08;;;0.20;;
39874;SDS011;25547;52.530;13.194;2023-05-07T08:31:34;1.35;;;0.40;;
39874;SDS011;25547;52.530;13.194;2023-05-07T08:34:00;1.10;;;0.25;;
39874;SDS011;25547;52.530;13.194;2023-05-07T08:36:31;1.30;;;0.20;;
39874;SDS011;25547;52.530;13.194;2023-05-07T08:38:57;0.80;;;0.20;;
39874;SDS011;25547;52.530;13.194;2023-05-07T08:41:23;2.00;;;0.40;;
39874;SDS011;25547;52.530;13.194;2023-05-07T08:43:49;2.35;;;0.32;;
39874;SDS011;25547;52.530;13.194;2023-05-07T08:46:21;1.63;;;0.30;;
39874;SDS011;25547;52.530;13.194;2023-05-07T08:48:51;1.35;;;0.20;;
39874;SDS011;25547;52.530;13.194;2023-05-07T08:51:20;2.10;;;0.20;;
39874;SDS011;25547;52.530;13.194;2023-05-07T08:53:49;2.05;;;0.20;;
39874;SDS011;25547;52.530;13.194;2023-05-07T08:56:17;1.15;;;0.40;;
39874;SDS011;25547;52.530;13.194;2023-05-07T08:58:45;1.20;;;0.20;;
39874;SDS011;25547;52.530;13.194;2023-05-07T09:01:14;2.65;;;0.40;;
39874;SDS011;25547;52.530;13.194;2023-05-07T09:03:43;1.30;;;0.30;;
39874;SDS011;25547;52.530;13.194;2023-05-07T09:06:10;3.35;;;0.30;;
39874;SDS011;25547;52.530;13.194;2023-05-07T09:08:36;1.23;;;0.20;;
39874;SDS011;25547;52.530;13.194;2023-05-07T09:11:02;2.15;;;0.57;;
39874;SDS011;25547;52.530;13.194;2023-05-07T09:13:30;1.40;;;0.25;;
39874;SDS011;25547;52.530;13.194;2023-05-07T09:15:58;2.08;;;0.30;;
39874;SDS011;25547;52.530;13.194;2023-05-07T09:18:34;1.40;;;0.30;;
39874;SDS011;25547;52.530;13.194;2023-05-07T09:21:00;1.05;;;0.28;;
39874;SDS011;25547;52.530;13.194;2023-05-07T09:23:25;2.40;;;0.40;;
39874;SDS011;25547;52.530;13.194;2023-05-07T09:25:53;3.67;;;0.60;;
39874;SDS011;25547;52.530;13.194;2023-05-07T09:28:27;1.33;;;0.40;;
39874;SDS011;25547;52.530;13.194;2023-05-07T09:30:55;3.85;;;0.57;;
39874;SDS011;25547;52.530;13.194;2023-05-07T09:33:21;1.67;;;0.50;;
39874;SDS011;25547;52.530;13.194;2023-05-07T09:35:48;2.15;;;0.22;;
39874;SDS011;25547;52.530;13.194;2023-05-07T09:38:19;2.10;;;0.30;;
39874;SDS011;25547;52.530;13.194;2023-05-07T09:40:46;2.55;;;0.40;;
39874;SDS011;25547;52.530;13.194;2023-05-07T09:43:14;1.98;;;0.20;;
39874;SDS011;25547;52.530;13.194;2023-05-07T09:45:40;3.13;;;1.40;;
39874;SDS011;25547;52.530;13.194;2023-05-07T09:48:06;1.17;;;0.20;;
39874;SDS011;25547;52.530;13.194;2023-05-07T09:50:35;2.05;;;0.35;;
39874;SDS011;25547;52.530;13.194;2023-05-07T09:53:07;2.95;;;0.82;;
39874;SDS011;25547;52.530;13.194;2023-05-07T09:55:35;1.30;;;0.28;;
39874;SDS011;25547;52.530;13.194;2023-05-07T09:58:02;2.20;;;0.30;;
39874;SDS011;25547;52.530;13.194;2023-05-07T10:00:31;1.85;;;0.20;;
39874;SDS011;25547;52.530;13.194;2023-05-07T10:02:57;1.52;;;0.40;;
39874;SDS011;25547;52.530;13.194;2023-05-07T10:05:24;2.60;;;0.25;;
39874;SDS011;25547;52.530;13.194;2023-05-07T10:07:51;2.20;;;0.20;;
39874;SDS011;25547;52.530;13.194;2023-05-07T10:10:21;2.47;;;0.73;;
39874;SDS011;25547;52.530;13.194;2023-05-07T10:12:47;3.38;;;0.50;;
39874;SDS011;25547;52.530;13.194;2023-05-07T10:15:13;3.25;;;0.45;;
39874;SDS011;25547;52.530;13.194;2023-05-07T10:17:41;1.50;;;0.20;;
39874;SDS011;25547;52.530;13.194;2023-05-07T10:20:07;1.30;;;0.20;;
39874;SDS011;25547;52.530;13.194;2023-05-07T10:22:48;1.52;;;0.20;;
39874;SDS011;25547;52.530;13.194;2023-05-07T10:25:18;1.88;;;0.52;;
39874;SDS011;25547;52.530;13.194;2023-05-07T10:28:01;5.18;;;0.20;;
39874;SDS011;25547;52.530;13.194;2023-05-07T10:33:19;2.90;;;0.30;;
39874;SDS011;25547;52.530;13.194;2023-05-07T10:35:50;1.20;;;0.20;;
39874;SDS011;25547;52.530;13.194;2023-05-07T10:38:19;4.25;;;0.22;;
39874;SDS011;25547;52.530;13.194;2023-05-07T10:40:45;1.55;;;0.30;;
39874;SDS011;25547;52.530;13.194;2023-05-07T10:43:11;1.23;;;0.30;;
39874;SDS011;25547;52.530;13.194;2023-05-07T10:45:37;2.17;;;0.25;;
39874;SDS011;25547;52.530;13.194;2023-05-07T10:48:11;1.83;;;0.43;;
39874;SDS011;25547;52.530;13.194;2023-05-07T10:50:40;2.38;;;0.20;;
39874;SDS011;25547;52.530;13.194;2023-05-07T10:55:43;1.30;;;0.10;;
39874;SDS011;25547;52.530;13.194;2023-05-07T11:00:47;1.10;;;0.15;;
39874;SDS011;25547;52.530;13.194;2023-05-07T11:03:17;0.82;;;0.35;;
39874;SDS011;25547;52.530;13.194;2023-05-07T11:05:47;1.17;;;0.20;;
39874;SDS011;25547;52.530;13.194;2023-05-07T11:17:12;3.00;;;0.10;;
39874;SDS011;25547;52.530;13.194;2023-05-07T11:19:54;1.35;;;0.10;;
39874;SDS011;25547;52.530;13.194;2023-05-07T11:25:04;1.10;;;0.10;;
39874;SDS011;25547;52.530;13.194;2023-05-07T11:27:31;0.82;;;0.10;;
39874;SDS011;25547;52.530;13.194;2023-05-07T11:29:57;0.98;;;0.10;;
39874;SDS011;25547;52.530;13.194;2023-05-07T11:34:53;0.70;;;0.10;;
39874;SDS011;25547;52.530;13.194;2023-05-07T11:37:22;0.52;;;0.08;;
39874;SDS011;25547;52.530;13.194;2023-05-07T11:39:49;1.17;;;0.10;;
39874;SDS011;25547;52.530;13.194;2023-05-07T11:42:33;4.45;;;0.30;;
39874;SDS011;25547;52.530;13.194;2023-05-07T11:45:00;1.40;;;0.20;;
39874;SDS011;25547;52.530;13.194;2023-05-07T11:47:26;0.90;;;0.10;;
39874;SDS011;25547;52.530;13.194;2023-05-07T11:49:55;1.85;;;0.50;;
39874;SDS011;25547;52.530;13.194;2023-05-07T11:52:22;2.83;;;0.10;;
39874;SDS011;25547;52.530;13.194;2023-05-07T11:54:52;0.90;;;0.10;;
39874;SDS011;25547;52.530;13.194;2023-05-07T11:57:24;1.08;;;0.10;;
39874;SDS011;25547;52.530;13.194;2023-05-07T11:59:54;1.05;;;0.10;;
39874;SDS011;25547;52.530;13.194;2023-05-07T12:02:23;1.65;;;0.10;;
39874;SDS011;25547;52.530;13.194;2023-05-07T12:04:53;0.93;;;0.10;;
39874;SDS011;25547;52.530;13.194;2023-05-07T12:07:20;3.33;;;1.38;;
39874;SDS011;25547;52.530;13.194;2023-05-07T12:09:48;1.50;;;0.20;;
39874;SDS011;25547;52.530;13.194;2023-05-07T12:12:14;1.00;;;0.10;;
39874;SDS011;25547;52.530;13.194;2023-05-07T12:14:45;1.10;;;0.10;;
39874;SDS011;25547;52.530;13.194;2023-05-07T12:17:12;1.55;;;0.17;;
39874;SDS011;25547;52.530;13.194;2023-05-07T12:19:39;0.70;;;0.10;;
39874;SDS011;25547;52.530;13.194;2023-05-07T12:22:10;1.38;;;0.10;;
39874;SDS011;25547;52.530;13.194;2023-05-07T12:24:49;2.60;;;0.10;;
39874;SDS011;25547;52.530;13.194;2023-05-07T12:27:25;0.98;;;0.17;;
39874;SDS011;25547;52.530;13.194;2023-05-07T12:29:53;1.02;;;0.13;;
39874;SDS011;25547;52.530;13.194;2023-05-07T12:32:21;0.50;;;0.10;;
39874;SDS011;25547;52.530;13.194;2023-05-07T12:34:50;1.25;;;0.10;;
39874;SDS011;25547;52.530;13.194;2023-05-07T12:37:16;2.08;;;0.10;;
39874;SDS011;25547;52.530;13.194;2023-05-07T12:39:48;0.65;;;0.10;;
39874;SDS011;25547;52.530;13.194;2023-05-07T12:42:14;1.10;;;0.08;;
39874;SDS011;25547;52.530;13.194;2023-05-07T12:44:41;1.77;;;0.10;;
39874;SDS011;25547;52.530;13.194;2023-05-07T12:47:10;1.13;;;0.30;;
39874;SDS011;25547;52.530;13.194;2023-05-07T12:49:35;2.03;;;0.10;;
39874;SDS011;25547;52.530;13.194;2023-05-07T12:54:35;0.73;;;0.10;;
39874;SDS011;25547;52.530;13.194;2023-05-07T12:57:05;1.30;;;0.10;;
39874;SDS011;25547;52.530;13.194;2023-05-07T13:02:03;1.00;;;0.10;;
39874;SDS011;25547;52.530;13.194;2023-05-07T13:06:57;1.02;;;0.10;;
39874;SDS011;25547;52.530;13.194;2023-05-07T13:09:23;1.33;;;0.08;;
39874;SDS011;25547;52.530;13.194;2023-05-07T13:11:49;7.00;;;2.00;;
39874;SDS011;25547;52.530;13.194;2023-05-07T13:14:17;8.05;;;2.28;;
39874;SDS011;25547;52.530;13.194;2023-05-07T13:16:45;3.95;;;0.80;;
39874;SDS011;25547;52.530;13.194;2023-05-07T13:19:10;2.65;;;0.20;;
39874;SDS011;25547;52.530;13.194;2023-05-07T13:21:36;1.55;;;0.10;;
39874;SDS011;25547;52.530;13.194;2023-05-07T13:24:04;1.05;;;0.10;;
39874;SDS011;25547;52.530;13.194;2023-05-07T13:28:58;2.72;;;0.82;;
39874;SDS011;25547;52.530;13.194;2023-05-07T13:31:24;1.98;;;0.10;;
39874;SDS011;25547;52.530;13.194;2023-05-07T13:33:50;0.50;;;0.00;;
39874;SDS011;25547;52.530;13.194;2023-05-07T13:36:15;1.27;;;0.20;;
39874;SDS011;25547;52.530;13.194;2023-05-07T13:38:43;2.20;;;0.10;;
39874;SDS011;25547;52.530;13.194;2023-05-07T13:41:09;1.63;;;0.05;;
39874;SDS011;25547;52.530;13.194;2023-05-07T13:43:35;0.60;;;0.10;;
39874;SDS011;25547;52.530;13.194;2023-05-07T13:46:00;0.35;;;0.05;;
39874;SDS011;25547;52.530;13.194;2023-05-07T13:48:26;0.88;;;0.15;;
39874;SDS011;25547;52.530;13.194;2023-05-07T13:50:53;2.97;;;0.32;;
39874;SDS011;25547;52.530;13.194;2023-05-07T13:53:19;2.03;;;0.10;;
39874;SDS011;25547;52.530;13.194;2023-05-07T13:55:45;1.60;;;0.10;;
39874;SDS011;25547;52.530;13.194;2023-05-07T13:58:10;0.77;;;0.10;;
39874;SDS011;25547;52.530;13.194;2023-05-07T14:00:38;1.83;;;0.20;;
39874;SDS011;25547;52.530;13.194;2023-05-07T14:03:04;2.47;;;0.10;;
39874;SDS011;25547;52.530;13.194;2023-05-07T14:05:32;1.08;;;0.20;;
39874;SDS011;25547;52.530;13.194;2023-05-07T14:07:58;1.40;;;0.10;;
39874;SDS011;25547;52.530;13.194;2023-05-07T14:10:24;1.08;;;0.10;;
39874;SDS011;25547;52.530;13.194;2023-05-07T14:12:50;0.98;;;0.13;;
39874;SDS011;25547;52.530;13.194;2023-05-07T14:15:19;1.25;;;0.40;;
39874;SDS011;25547;52.530;13.194;2023-05-07T14:17:44;3.45;;;0.85;;
39874;SDS011;25547;52.530;13.194;2023-05-07T14:20:11;2.33;;;0.32;;
39874;SDS011;25547;52.530;13.194;2023-05-07T14:22:37;4.03;;;0.30;;
39874;SDS011;25547;52.530;13.194;2023-05-07T14:25:03;1.77;;;0.25;;
39874;SDS011;25547;52.530;13.194;2023-05-07T14:27:29;1.58;;;0.30;;
39874;SDS011;25547;52.530;13.194;2023-05-07T14:29:57;7.78;;;3.58;;
39874;SDS011;25547;52.530;13.194;2023-05-07T14:32:23;27.17;;;12.95;;
39874;SDS011;25547;52.530;13.194;2023-05-07T14:34:50;6.97;;;3.38;;
39874;SDS011;25547;52.530;13.194;2023-05-07T14:37:16;1.58;;;0.55;;
39874;SDS011;25547;52.530;13.194;2023-05-07T14:39:44;2.30;;;0.40;;
39874;SDS011;25547;52.530;13.194;2023-05-07T14:42:12;0.93;;;0.15;;
39874;SDS011;25547;52.530;13.194;2023-05-07T14:44:38;5.97;;;1.17;;
39874;SDS011;25547;52.530;13.194;2023-05-07T14:47:08;12.88;;;4.30;;
39874;SDS011;25547;52.530;13.194;2023-05-07T14:49:36;3.47;;;0.80;;
39874;SDS011;25547;52.530;13.194;2023-05-07T14:52:01;1.90;;;0.30;;
39874;SDS011;25547;52.530;13.194;2023-05-07T14:54:27;6.13;;;2.88;;
39874;SDS011;25547;52.530;13.194;2023-05-07T14:56:53;4.63;;;0.80;;
39874;SDS011;25547;52.530;13.194;2023-05-07T14:59:20;1.38;;;0.15;;
39874;SDS011;25547;52.530;13.194;2023-05-07T15:01:46;4.13;;;0.90;;
39874;SDS011;25547;52.530;13.194;2023-05-07T15:04:13;1.63;;;0.20;;
39874;SDS011;25547;52.530;13.194;2023-05-07T15:06:38;0.60;;;0.10;;
39874;SDS011;25547;52.530;13.194;2023-05-07T15:09:04;1.83;;;0.30;;
39874;SDS011;25547;52.530;13.194;2023-05-07T15:11:30;2.58;;;0.47;;
39874;SDS011;25547;52.530;13.194;2023-05-07T15:13:58;1.95;;;0.15;;